Date,TemperatureHighF,TemperatureAvgF,TemperatureLowF,DewpointHighF,DewpointAvgF,DewpointLowF,HumidityHigh,HumidityAvg,HumidityLow,PressureMaxIn,PressureMinIn,WindSpeedMaxMPH,WindSpeedAvgMPH,GustSpeedMaxMPH,PrecipitationSumIn
2014-1-1,49.8,41.3,33.3,39.6,33.4,30.2,96,75,49,30.42,30.15,7,0,7,0.00
2014-1-2,48.8,46.0,42.7,47.7,43.9,39.3,96,92,80,30.15,29.60,18,1,18,0.32
2014-1-3,45.4,31.9,23.6,39.9,15.5,9.2,81,51,36,30.47,29.68,27,6,27,0.00
2014-1-4,37.4,30.0,19.8,25.6,17.4,14.1,81,61,42,30.53,30.26,7,2,7,0.00
2014-1-5,64.0,49.5,36.9,60.6,43.7,25.6,96,81,62,30.26,29.79,15,2,15,0.14
2014-1-6,60.4,46.4,20.0,58.2,36.2,-1.2,97,70,33,30.21,29.66,25,6,25,0.03
2014-1-7,28.9,19.7,11.2,10.2,0.5,-5.1,65,43,29,30.54,30.21,17,2,17,0.00
2014-1-8,43.7,28.5,16.4,17.1,13.2,9.5,82,56,26,30.62,30.51,10,1,10,0.00
2014-1-9,54.3,39.0,23.1,36.1,24.3,14.0,76,57,28,30.57,30.44,7,1,7,0.00
2014-1-10,56.4,49.7,41.9,55.0,47.1,35.9,97,91,64,30.44,30.08,7,2,7,1.49
2014-1-11,69.5,60.3,54.9,66.1,58.8,52.1,98,95,84,30.08,29.62,23,4,23,0.97
2014-1-12,60.1,49.6,37.9,52.1,38.7,34.1,92,69,40,30.19,29.69,17,1,17,0.00
2014-1-13,61.0,47.5,33.2,47.2,39.1,31.4,95,75,47,30.20,29.97,15,1,15,0.00
2014-1-14,56.6,50.1,39.6,52.6,47.5,38.0,96,91,75,29.99,29.79,15,1,15,0.15
2014-1-15,61.4,45.7,34.7,47.7,39.1,33.5,97,80,44,29.97,29.83,16,2,16,0.00
2014-1-16,47.9,38.7,31.1,34.2,30.0,22.0,90,73,38,30.05,29.91,17,2,17,0.01
2014-1-17,55.3,42.1,29.8,39.3,31.9,24.5,86,68,50,30.05,29.87,17,2,17,0.00
2014-1-18,48.8,36.0,28.7,32.3,19.1,13.4,74,51,34,30.08,29.86,19,2,19,0.00
2014-1-19,56.1,41.9,30.3,31.1,27.2,21.2,75,57,37,30.06,29.92,16,2,16,0.01
2014-1-20,64.8,46.4,34.9,35.7,31.9,28.4,78,60,29,29.95,29.81,13,1,14,0.00
2014-1-21,60.6,45.1,32.7,41.5,34.0,27.3,90,67,46,29.83,29.48,25,3,25,0.07
2014-1-22,36.6,29.0,23.0,27.4,14.4,4.9,81,57,27,30.11,29.81,18,3,18,0.00
2014-1-23,40.9,28.6,18.1,16.8,13.3,8.4,81,55,31,30.40,30.10,15,2,15,0.00
2014-1-24,29.2,21.7,15.2,8.4,0.8,-4.6,59,41,24,30.63,30.31,19,4,19,0.00
2014-1-25,45.7,31.9,17.8,20.9,13.2,4.4,59,47,33,30.32,29.69,24,4,24,0.00
2014-1-26,53.4,40.9,26.9,31.9,24.4,19.3,74,53,33,30.00,29.86,18,2,18,0.00
2014-1-27,67.7,52.2,41.0,41.0,35.4,25.9,68,54,35,30.05,29.76,22,3,22,0.00
2014-1-28,40.8,30.2,21.6,25.8,10.4,-1.1,90,47,25,30.28,30.05,19,6,19,0.00
2014-1-29,27.9,23.0,17.9,18.8,14.3,7.9,92,71,43,30.39,30.15,14,3,14,0.04
2014-1-30,36.8,23.9,8.8,17.9,10.4,2.8,83,59,34,30.44,30.24,14,2,14,0.09
2014-1-31,51.7,34.9,19.1,24.7,18.5,12.1,80,54,30,30.25,30.16,7,1,8,0.11
2014-2-1,51.0,37.8,25.6,41.5,30.6,19.9,95,77,37,30.25,30.13,6,1,10,0.20
2014-2-2,60.7,49.0,42.6,53.1,46.4,41.3,97,91,74,30.15,30.02,6,1,11,0.01
2014-2-3,71.5,56.1,43.0,63.8,51.7,37.2,97,86,61,30.22,29.91,15,4,18,0.00
2014-2-4,43.0,39.8,38.9,38.3,37.0,35.7,96,90,80,30.36,30.09,17,4,17,0.16
2014-2-5,62.6,46.9,39.3,55.7,43.8,34.0,97,90,61,30.10,29.81,18,2,18,0.24
2014-2-6,46.7,40.2,33.9,34.4,28.4,24.8,76,63,50,30.34,30.06,17,3,17,0.00
2014-2-7,52.9,40.1,28.2,34.2,30.3,25.4,90,70,45,30.36,30.25,9,1,9,0.00
2014-2-8,53.4,41.6,33.9,36.0,33.1,30.5,87,73,50,30.27,30.10,11,1,11,0.00
2014-2-9,59.2,43.8,29.2,44.2,36.2,26.6,91,76,56,30.18,29.96,20,2,20,0.00
2014-2-10,48.1,41.2,35.5,41.1,34.1,28.7,94,77,51,30.24,30.01,16,3,16,0.11
2014-2-11,35.7,30.8,26.5,34.0,28.6,23.7,94,91,85,30.39,30.20,14,3,14,0.02
2014-2-12,32.0,27.6,23.8,30.5,23.3,17.6,94,84,67,30.39,29.75,22,5,22,0.00
2014-2-13,34.5,32.0,30.9,33.0,30.5,29.3,95,94,94,29.75,29.48,11,0,11,0.21
2014-2-14,51.9,38.8,33.6,38.5,34.2,32.3,95,85,56,29.81,29.49,14,1,14,0.03
2014-2-15,50.3,42.6,33.8,41.2,33.0,17.0,94,72,31,30.05,29.54,23,3,23,0.30
2014-2-16,55.4,40.7,32.3,31.3,25.7,18.3,78,56,34,30.15,30.04,13,1,13,0.00
2014-2-17,47.7,40.3,32.8,32.8,27.9,25.5,80,62,45,30.37,30.15,17,3,17,0.00
2014-2-18,67.3,49.4,34.8,44.9,37.7,31.9,91,68,32,30.24,30.09,14,1,14,0.00
2014-2-19,75.7,61.2,48.4,60.6,54.0,40.5,97,79,55,30.09,29.91,22,2,22,0.37
2014-2-20,80.3,65.1,54.6,61.9,56.5,52.1,93,76,46,30.18,30.01,23,3,23,0.00
2014-2-21,70.8,63.0,47.1,65.5,59.4,45.5,94,88,77,30.03,29.78,24,5,24,0.33
2014-2-22,65.0,51.0,37.7,45.4,34.8,26.7,94,59,24,30.19,30.02,13,1,13,0.01
2014-2-23,66.2,51.0,35.1,47.0,39.7,31.6,92,68,41,30.12,29.90,12,2,14,0.00
2014-2-24,64.6,52.6,41.7,46.8,37.7,31.3,92,60,30,30.13,29.87,16,2,16,0.00
2014-2-25,65.5,48.9,35.5,44.3,30.9,24.1,73,51,35,30.13,29.89,14,2,15,0.00
2014-2-26,43.8,39.8,30.1,32.8,29.1,25.9,85,66,53,29.97,29.79,12,2,12,0.00
2014-2-27,57.2,40.2,26.0,32.8,25.5,18.4,87,58,33,29.99,29.77,16,2,16,0.00
2014-2-28,48.4,39.1,30.5,24.0,19.8,12.9,66,46,35,30.29,29.99,18,4,18,0.00
2014-3-1,58.1,42.7,33.3,40.1,31.8,20.1,92,66,50,30.36,30.21,13,2,13,0.00
2014-3-2,70.0,52.6,32.0,49.3,41.8,29.4,91,69,46,30.24,29.94,20,2,20,0.00
2014-3-3,58.2,44.5,25.5,52.6,39.2,22.1,93,82,70,30.25,29.84,17,3,25,0.29
2014-3-4,38.9,30.3,18.8,22.9,18.9,12.5,88,64,49,30.35,30.19,12,2,14,0.01
2014-3-5,46.2,36.6,30.7,32.0,26.8,19.2,92,69,47,30.26,30.12,11,2,11,0.11
2014-3-6,43.8,36.7,32.0,34.5,27.7,19.2,93,71,54,30.33,29.95,20,8,29,0.91
2014-3-7,39.6,37.5,35.2,37.9,35.5,32.8,94,92,90,29.98,29.83,31,8,31,1.18
2014-3-8,67.7,49.4,30.3,49.6,40.9,28.8,96,75,46,30.10,29.97,12,1,12,0.01
2014-3-9,71.0,55.2,40.1,46.3,42.1,37.9,94,66,32,30.08,29.98,15,1,15,0.00
2014-3-10,73.8,56.5,41.3,43.0,36.8,-99.9,86,54,24,30.01,29.81,15,-9,15,0.00
2014-3-11,76.7,60.3,43.0,49.6,45.1,39.4,89,61,35,29.83,29.67,14,1,14,0.00
2014-3-12,72.0,61.5,48.1,60.5,52.9,31.6,93,74,49,29.70,29.27,18,4,29,0.07
2014-3-13,49.7,42.3,32.6,32.1,18.1,8.4,62,39,20,30.23,29.64,23,5,23,0.00
2014-3-14,61.7,44.2,25.1,40.0,24.2,17.8,79,50,24,30.35,30.13,20,3,20,0.00
2014-3-15,73.3,60.0,50.3,44.0,41.4,38.0,74,53,29,30.14,29.95,18,2,18,0.00
2014-3-16,55.0,50.6,46.6,50.5,45.5,39.3,94,83,66,30.03,29.78,14,2,14,0.30
2014-3-17,46.4,35.9,32.8,44.8,33.9,31.0,94,92,90,29.97,29.78,19,6,19,0.78
2014-3-18,40.6,36.0,32.1,38.2,33.9,30.6,94,92,86,30.16,29.90,17,5,17,0.20
2014-3-19,51.9,43.2,37.5,47.2,40.9,36.2,95,92,83,30.18,30.00,12,2,12,0.07
2014-3-20,70.2,53.6,41.5,48.7,39.5,28.4,97,66,23,30.04,29.93,16,2,16,0.00
2014-3-21,69.8,54.8,35.2,41.0,33.1,27.6,77,46,26,30.17,30.02,11,2,11,0.00
2014-3-22,76.6,60.5,45.1,53.1,45.3,36.8,86,60,35,30.09,29.93,17,2,17,0.00
2014-3-23,63.4,50.5,39.1,53.5,45.0,37.2,94,83,50,30.13,29.91,18,3,18,0.03
2014-3-24,53.8,42.2,32.3,37.2,30.9,27.0,95,68,36,30.27,30.10,14,2,14,0.01
2014-3-25,47.4,40.8,36.0,40.2,34.7,30.0,91,79,70,30.10,29.76,19,3,19,0.06
2014-3-26,49.7,38.7,30.8,30.0,20.7,14.8,79,51,26,30.33,29.98,19,3,19,0.00
2014-3-27,61.2,44.1,25.9,40.3,26.9,20.3,85,55,26,30.47,30.29,19,3,19,0.00
2014-3-28,70.3,56.4,41.4,61.1,51.0,36.9,96,83,64,30.30,30.10,25,2,25,0.53
2014-3-29,70.4,62.9,57.8,65.2,61.0,57.0,97,94,82,30.11,29.58,18,2,18,0.91
2014-3-30,62.9,51.9,44.1,59.3,37.5,28.6,88,59,39,29.98,29.59,29,6,29,0.00
2014-3-31,73.8,56.6,41.4,39.0,30.3,24.3,69,41,17,30.11,29.98,15,2,15,0.00
2014-4-1,82.6,61.8,40.0,44.9,40.3,29.9,85,52,16,30.13,30.00,12,1,12,0.00
2014-4-2,86.5,69.1,50.7,50.7,46.0,42.9,78,48,23,30.10,29.99,18,2,18,0.00
2014-4-3,84.2,70.0,57.7,60.8,51.8,45.8,74,54,27,30.06,29.89,17,2,17,0.00
2014-4-4,84.7,71.6,59.7,60.4,56.7,52.6,87,62,35,29.91,29.75,23,4,23,0.00
2014-4-5,77.3,69.3,60.4,60.1,50.3,36.6,77,53,35,30.04,29.80,13,2,13,0.00
2014-4-6,60.7,56.0,50.1,42.1,37.9,33.7,64,51,41,30.16,30.04,20,4,20,0.00
2014-4-7,62.9,55.2,48.3,60.5,49.8,38.3,95,83,53,30.06,29.68,19,3,19,0.21
2014-4-8,69.8,64.3,56.2,64.2,57.5,46.2,96,80,55,29.69,29.58,16,2,16,0.01
2014-4-9,70.0,58.5,47.9,47.9,43.9,38.0,89,61,33,30.10,29.66,19,2,19,0.04
2014-4-10,76.0,60.3,41.4,49.0,42.8,38.1,89,57,31,30.27,30.10,17,2,17,0.00
2014-4-11,78.2,65.9,51.2,53.3,48.8,43.6,77,56,37,30.24,30.08,24,3,24,0.00
2014-4-12,81.5,68.7,53.5,56.8,52.5,49.3,87,59,35,30.21,30.10,15,2,15,0.00
2014-4-13,81.5,69.2,57.7,64.3,58.0,54.5,93,70,47,30.22,30.08,17,3,17,0.00
2014-4-14,75.5,67.3,62.2,66.2,62.2,58.2,94,84,65,30.11,29.83,17,4,17,0.10
2014-4-15,72.5,63.7,42.9,68.2,60.4,33.4,96,89,69,29.99,29.58,27,5,27,1.57
2014-4-16,55.5,44.8,35.3,33.7,28.5,24.4,70,54,34,30.42,29.99,21,5,21,0.00
2014-4-17,64.3,50.3,35.3,45.3,37.8,29.7,82,64,46,30.52,30.38,19,3,19,0.00
2014-4-18,63.9,53.1,43.7,51.4,43.4,37.9,93,71,49,30.42,30.17,15,4,15,0.30
2014-4-19,51.9,50.5,48.8,49.8,48.5,44.3,95,93,76,30.17,30.05,23,8,23,0.84
2014-4-20,67.1,57.5,50.6,51.9,45.2,35.6,80,64,43,30.20,30.12,24,7,24,0.00
2014-4-21,76.2,60.5,46.2,53.6,45.0,35.5,80,58,35,30.16,29.92,16,3,16,0.00
2014-4-22,84.2,64.3,47.0,59.7,52.3,44.0,92,69,36,29.93,29.66,20,2,20,0.00
2014-4-23,76.3,65.4,53.2,58.0,44.3,30.1,95,54,20,29.96,29.70,19,3,19,0.01
2014-4-24,73.4,60.6,47.9,49.6,40.7,35.2,69,49,32,30.14,29.96,12,2,12,0.00
2014-4-25,83.3,67.8,51.5,69.2,57.3,47.7,92,71,47,30.00,29.67,24,4,25,0.04
2014-4-26,81.8,69.8,58.2,54.5,47.7,41.1,69,48,25,30.01,29.83,10,3,15,0.00
2014-4-27,85.9,70.6,52.6,60.0,54.1,46.3,85,59,34,30.01,29.89,14,1,14,0.00
2014-4-28,84.7,69.4,60.6,69.7,63.0,56.9,94,81,58,29.97,29.83,20,2,20,0.65
2014-4-29,78.6,66.3,56.7,73.1,64.0,55.5,97,92,80,30.00,29.85,15,2,15,0.45
2014-4-30,79.3,72.8,69.2,73.2,69.7,66.5,95,90,79,30.01,29.89,27,6,27,0.77
2014-5-1,75.6,69.6,63.5,67.8,65.0,60.7,94,86,70,29.93,29.80,17,3,17,0.04
2014-5-2,67.5,61.6,54.5,60.7,50.8,41.9,94,70,44,29.96,29.86,11,1,11,0.00
2014-5-3,78.5,65.4,53.6,57.0,51.7,47.2,94,65,34,29.93,29.84,17,1,17,0.00
2014-5-4,85.6,70.3,53.2,55.4,51.2,47.3,83,54,31,30.01,29.83,18,2,18,0.00
2014-5-5,86.5,72.0,58.0,65.9,58.1,53.1,85,63,45,29.98,29.83,19,3,19,0.00
2014-5-6,90.5,73.1,57.4,64.7,59.4,53.8,97,68,30,29.95,29.81,15,1,15,0.00
2014-5-7,89.3,74.5,63.0,69.3,64.0,60.3,94,73,41,30.10,29.95,12,2,12,0.00
2014-5-8,91.8,77.7,62.5,66.7,61.0,57.0,90,61,32,30.19,30.06,16,1,16,0.00
2014-5-9,89.7,78.0,65.4,68.9,63.6,59.2,84,63,43,30.17,30.02,17,3,17,0.00
2014-5-10,87.5,76.4,69.3,70.2,64.3,59.1,90,68,40,30.13,30.00,22,3,22,0.00
2014-5-11,87.3,76.4,66.3,69.3,66.3,62.1,93,72,52,30.14,30.04,11,1,11,0.00
2014-5-12,90.6,78.1,65.9,72.7,67.9,64.1,97,74,46,30.18,30.07,15,1,15,0.00
2014-5-13,90.7,79.6,68.1,70.3,68.4,66.3,94,71,48,30.16,30.05,10,2,15,0.00
2014-5-14,87.7,77.2,67.9,69.4,66.0,61.5,94,71,44,30.16,30.04,17,3,17,0.00
2014-5-15,77.0,70.5,67.1,72.8,68.1,64.6,97,92,82,30.10,29.83,23,4,23,2.67
2014-5-16,74.3,66.7,58.2,67.8,55.1,47.1,96,69,39,30.05,29.80,17,3,17,0.13
2014-5-17,73.6,62.7,48.8,54.0,45.1,39.8,75,54,36,30.18,30.05,17,2,17,0.00
2014-5-18,67.0,60.0,52.2,52.4,49.9,47.8,90,70,51,30.22,30.15,12,1,12,0.00
2014-5-19,73.8,61.5,47.6,54.0,48.3,44.9,91,65,38,30.30,30.20,13,1,13,0.00
2014-5-20,79.4,66.0,49.7,58.0,53.7,47.3,93,67,46,30.29,30.10,17,2,17,0.00
2014-5-21,88.7,74.7,61.6,65.7,60.4,53.9,78,63,41,30.13,29.94,14,2,14,0.00
2014-5-22,91.5,79.4,68.8,66.3,63.7,60.9,79,61,37,29.96,29.83,16,2,16,0.00
2014-5-23,90.5,79.3,67.7,68.2,63.7,58.5,87,62,35,30.00,29.89,15,2,15,0.00
2014-5-24,82.8,72.3,61.3,63.2,53.0,49.9,73,52,34,30.11,29.96,14,2,14,0.00
2014-5-25,84.7,71.7,55.3,62.5,57.3,51.2,87,63,41,30.19,30.10,11,1,11,0.00
2014-5-26,86.5,75.2,60.5,67.1,63.9,57.7,91,70,50,30.21,30.06,15,2,15,0.00
2014-5-27,90.3,77.7,70.0,71.9,68.4,66.2,92,75,46,30.12,29.94,16,2,16,0.04
2014-5-28,92.3,79.5,68.5,73.3,68.4,65.1,96,72,42,30.00,29.91,10,1,10,0.00
2014-5-29,87.5,76.6,69.1,71.6,68.2,65.3,89,76,58,30.09,29.96,11,1,11,0.00
2014-5-30,84.0,74.8,68.1,70.7,68.0,66.1,95,80,61,30.10,30.01,13,2,13,0.00
2014-5-31,83.3,73.3,66.8,66.3,62.9,57.4,93,72,44,30.20,30.07,13,2,13,0.01
2014-6-1,79.2,70.0,60.0,61.1,53.0,49.0,82,57,36,30.32,30.20,12,2,14,0.00
2014-6-2,83.1,69.4,53.0,57.5,53.6,49.9,90,61,36,30.28,30.10,12,1,12,0.00
2014-6-3,87.3,75.1,61.8,67.7,63.8,57.7,93,70,48,30.14,29.92,11,1,11,0.00
2014-6-4,92.3,80.4,66.4,70.3,67.6,63.8,92,67,45,29.93,29.77,16,2,16,0.00
2014-6-5,94.3,82.8,74.1,74.9,69.9,66.5,84,67,43,29.81,29.68,16,3,16,0.00
2014-6-6,88.8,78.0,70.2,71.1,67.3,61.9,86,71,50,29.93,29.79,14,2,14,0.00
2014-6-7,86.6,76.6,66.7,68.8,64.3,57.6,94,69,40,30.00,29.92,12,2,12,0.00
2014-6-8,85.5,75.6,65.1,67.3,64.9,62.3,92,71,52,29.99,29.87,19,4,19,0.00
2014-6-9,90.0,79.6,71.0,73.2,69.6,65.2,90,73,55,29.91,29.83,13,2,13,0.00
2014-6-10,96.5,84.3,71.3,74.5,70.9,67.4,92,67,40,29.93,29.85,13,2,13,0.00
2014-6-11,93.6,81.1,71.6,74.1,71.2,67.8,93,73,49,29.94,29.82,22,2,22,0.57
2014-6-12,89.1,77.0,69.7,74.5,70.7,67.6,97,83,55,29.92,29.78,14,1,14,0.13
2014-6-13,88.3,77.3,67.4,72.3,68.1,64.1,94,75,51,29.86,29.77,15,2,15,0.00
2014-6-14,89.3,79.6,69.2,68.9,66.6,64.5,87,66,47,30.04,29.85,12,2,12,0.00
2014-6-15,91.3,79.2,65.5,71.8,64.6,58.7,85,63,42,30.15,30.03,11,2,11,0.00
2014-6-16,94.5,81.8,72.0,74.5,71.2,68.1,96,73,46,30.18,30.06,16,2,16,0.00
2014-6-17,95.5,80.3,71.2,75.8,70.6,66.5,91,74,47,30.16,30.04,22,2,22,0.04
2014-6-18,95.1,82.4,69.7,76.3,70.5,66.5,90,69,43,30.12,30.03,15,2,15,0.00
2014-6-19,95.9,84.5,71.8,74.5,71.5,68.3,91,67,46,30.10,29.94,15,2,15,0.20
2014-6-20,92.1,78.4,70.3,75.1,71.7,65.8,95,81,56,30.02,29.89,20,1,20,0.56
2014-6-21,92.6,78.7,71.8,76.1,72.0,70.1,96,82,50,29.92,29.76,21,2,21,2.20
2014-6-22,86.7,77.0,69.8,73.8,70.8,68.6,97,83,60,29.94,29.79,15,2,15,0.00
2014-6-23,87.6,78.3,68.7,70.8,68.7,66.6,93,74,53,30.10,29.94,12,2,12,0.00
2014-6-24,82.1,76.4,70.3,74.3,71.6,68.2,94,85,72,30.11,29.99,13,2,13,0.17
2014-6-25,89.5,79.6,72.8,77.5,73.4,71.6,96,83,60,30.02,29.87,16,2,16,0.04
2014-6-26,93.5,82.6,72.1,75.7,71.7,68.2,95,72,46,29.97,29.88,10,1,10,0.00
2014-6-27,90.2,77.7,71.3,76.4,71.8,69.3,96,83,61,30.08,29.94,16,2,18,0.48
2014-6-28,86.6,76.5,70.6,73.5,71.3,68.8,96,85,62,30.19,30.07,16,3,16,0.01
2014-6-29,87.7,77.0,65.6,68.8,63.0,56.4,85,65,37,30.20,30.09,12,2,12,0.00
2014-6-30,88.6,78.5,67.7,72.2,68.5,65.0,91,73,52,30.12,29.95,10,1,10,0.00
2014-7-1,90.5,81.7,72.8,75.7,71.7,68.5,87,73,58,29.99,29.88,15,2,15,0.00
2014-7-2,93.1,82.9,70.0,78.5,74.0,66.3,96,76,57,29.96,29.91,16,3,16,0.63
2014-7-3,87.7,79.8,74.1,76.3,73.6,71.2,96,82,63,29.98,29.79,18,3,18,0.03
2014-7-4,89.4,80.4,72.3,72.1,66.5,62.8,87,64,44,30.12,29.85,13,2,13,0.00
2014-7-5,85.3,76.1,66.3,62.9,58.1,53.0,73,55,39,30.25,30.12,17,3,17,0.00
2014-7-6,87.0,76.1,62.5,67.7,64.0,59.4,91,68,48,30.18,30.03,13,2,13,0.00
2014-7-7,91.2,79.9,68.5,75.2,70.3,66.7,95,75,51,30.07,29.93,12,2,13,0.00
2014-7-8,94.2,84.0,73.6,74.9,70.2,66.5,93,66,42,30.03,29.88,20,3,20,0.00
2014-7-9,95.2,83.2,75.9,74.8,72.1,66.6,90,71,41,30.00,29.91,26,2,26,0.00
2014-7-10,89.8,77.6,71.0,76.2,72.3,69.1,96,85,60,30.10,29.98,18,2,18,0.26
2014-7-11,83.8,76.0,70.1,73.7,71.0,68.9,96,85,70,30.18,30.06,9,1,9,0.00
2014-7-12,90.5,79.6,67.5,73.8,70.1,65.9,96,75,49,30.21,30.10,12,2,12,0.00
2014-7-13,91.3,81.3,71.2,75.3,72.7,69.7,96,77,53,30.14,29.99,13,2,13,0.00
2014-7-14,95.3,83.7,73.0,76.1,73.5,71.3,95,74,49,30.02,29.86,19,3,19,0.00
2014-7-15,92.3,79.1,70.1,78.9,74.1,68.3,95,85,58,29.89,29.75,21,3,21,0.20
2014-7-16,82.0,74.8,69.9,71.2,69.4,66.8,96,84,63,29.91,29.77,11,1,11,0.06
2014-7-17,86.0,75.7,63.4,66.9,64.4,61.4,94,71,49,30.07,29.90,10,1,10,0.00
2014-7-18,86.9,77.2,65.8,69.3,63.5,59.7,89,65,41,30.16,30.07,11,2,11,0.00
2014-7-19,86.0,74.2,68.8,68.0,62.5,57.3,89,68,41,30.14,30.05,10,1,10,0.02
2014-7-20,86.8,76.0,68.3,74.4,69.9,63.3,94,82,65,30.10,30.00,12,1,12,0.11
2014-7-21,76.9,74.2,71.6,74.7,72.5,70.4,96,95,90,30.14,30.01,11,1,11,0.28
2014-7-22,88.7,78.4,71.1,75.9,72.9,69.9,98,85,63,30.14,30.04,11,1,11,0.00
2014-7-23,89.2,80.9,73.9,78.5,75.0,72.9,97,83,66,30.09,29.91,16,2,16,0.08
2014-7-24,92.0,81.6,74.0,77.2,74.3,69.7,96,80,56,29.92,29.80,16,2,16,0.00
2014-7-25,84.8,76.8,69.7,72.8,70.1,66.7,94,80,65,30.04,29.91,11,3,11,0.00
2014-7-26,91.8,81.4,73.0,75.3,72.7,70.5,97,77,52,30.02,29.91,14,1,14,0.00
2014-7-27,92.8,81.8,74.3,77.9,74.2,71.0,96,79,52,29.97,29.77,15,2,15,0.01
2014-7-28,93.4,85.0,76.2,75.1,68.8,62.0,79,60,41,29.84,29.72,21,3,21,0.00
2014-7-29,85.3,76.5,67.9,63.3,61.5,59.7,76,61,45,29.97,29.83,7,2,12,0.00
2014-7-30,85.4,74.4,61.8,69.3,63.9,58.5,92,72,49,30.07,29.95,12,1,12,0.02
2014-7-31,86.3,75.1,68.1,72.4,68.4,64.8,95,82,51,30.11,30.05,14,2,14,0.23
2014-8-1,75.6,71.5,67.2,71.4,69.1,66.0,96,92,85,30.10,30.01,15,3,15,0.17
2014-8-2,69.8,68.0,66.1,68.6,66.8,64.9,97,96,94,30.10,30.02,10,2,10,1.16
2014-8-3,78.1,71.5,68.1,72.4,69.3,67.2,98,93,81,30.13,30.03,12,1,12,0.02
2014-8-4,85.3,75.5,66.7,73.6,70.2,65.8,98,85,63,30.08,29.99,13,2,13,0.00
2014-8-5,89.5,79.0,71.3,72.6,70.8,67.3,96,78,50,30.04,29.94,14,2,14,0.00
2014-8-6,92.5,80.8,69.7,74.4,69.7,64.7,94,72,42,29.98,29.88,14,1,14,0.00
2014-8-7,90.7,80.8,71.5,72.9,70.2,66.8,86,71,53,30.00,29.89,14,2,14,0.00
2014-8-8,87.4,78.4,70.5,70.8,68.5,64.7,94,74,48,30.09,29.99,10,2,10,0.00
2014-8-9,77.3,70.3,66.4,71.1,68.6,65.1,97,94,78,30.09,30.01,13,2,13,0.78
2014-8-10,77.2,71.4,67.8,72.7,69.3,66.6,97,94,85,30.08,30.01,12,2,12,1.42
2014-8-11,86.7,75.5,70.6,75.4,72.1,69.1,97,90,67,30.05,29.92,20,2,20,0.43
2014-8-12,89.4,78.7,72.4,78.3,74.2,71.3,98,87,67,29.93,29.75,16,1,16,0.00
2014-8-13,86.8,77.8,69.2,73.4,68.1,63.2,96,74,51,29.96,29.80,15,2,15,0.00
2014-8-14,86.3,73.7,62.1,64.2,61.1,58.2,88,67,41,30.04,29.94,11,2,11,0.00
2014-8-15,88.5,76.1,62.2,69.0,65.5,59.4,92,72,49,30.03,29.93,11,1,11,0.00
2014-8-16,88.2,76.5,68.3,75.8,70.4,66.2,94,82,61,30.02,29.95,14,0,15,0.01
2014-8-17,92.0,80.2,70.7,75.1,71.9,68.9,98,78,49,30.00,29.92,10,1,10,0.00
2014-8-18,90.9,80.6,72.3,78.2,73.3,69.5,92,79,63,29.94,29.74,17,1,17,0.00
2014-8-19,91.8,79.4,72.0,75.8,72.4,69.5,93,80,56,29.87,29.76,13,1,13,0.00
2014-8-20,90.0,80.5,71.8,77.0,73.8,70.6,96,82,58,30.00,29.85,10,1,10,0.00
2014-8-21,93.8,83.2,73.3,75.5,72.6,68.8,96,73,45,30.06,29.95,11,1,11,0.00
2014-8-22,98.0,84.5,73.8,75.2,72.2,69.2,89,69,42,30.02,29.91,11,1,11,0.00
2014-8-23,91.5,79.9,74.1,77.1,73.8,71.2,94,83,60,29.94,29.84,28,2,28,0.02
2014-8-24,81.3,76.0,70.0,73.7,67.6,62.3,91,76,61,30.07,29.91,17,5,17,0.00
2014-8-25,80.5,71.6,61.1,67.6,63.6,58.1,92,76,62,30.09,30.03,17,4,17,0.00
2014-8-26,83.8,73.9,63.3,66.1,63.3,60.3,92,71,50,30.12,30.03,15,3,15,0.00
2014-8-27,87.7,74.3,61.0,65.2,61.8,54.9,94,69,37,30.05,29.94,14,2,14,0.00
2014-8-28,95.5,79.9,63.4,71.7,66.1,60.0,90,66,45,30.00,29.91,11,1,11,0.00
2014-8-29,94.2,81.1,69.7,76.4,70.2,65.5,87,71,45,30.13,30.00,13,2,13,0.00
2014-8-30,91.0,80.6,71.4,75.6,72.3,68.8,93,77,56,30.19,30.08,8,2,13,0.00
2014-8-31,94.6,82.4,71.8,76.0,73.2,70.3,96,76,49,30.18,30.02,13,2,13,0.00
2014-9-1,97.3,84.4,73.8,76.9,73.4,68.7,96,73,41,30.09,29.99,12,1,12,0.00
2014-9-2,97.5,84.3,73.9,76.1,73.0,69.7,94,72,46,30.07,29.93,19,2,23,0.00
2014-9-3,92.3,77.8,71.1,78.5,72.6,69.1,96,85,57,30.10,29.97,16,1,16,0.66
2014-9-4,93.2,80.6,72.1,76.9,72.6,70.6,96,79,50,30.16,30.05,14,1,14,0.00
2014-9-5,91.7,81.1,73.1,76.4,72.6,70.4,95,77,54,30.18,30.05,13,2,13,0.00
2014-9-6,89.0,79.9,72.6,75.1,73.2,70.8,96,81,60,30.07,29.91,12,2,12,0.00
2014-9-7,83.1,75.2,71.5,76.2,73.0,70.0,96,93,76,30.06,29.94,11,2,11,2.91
2014-9-8,74.7,71.1,69.4,73.7,69.9,68.2,97,96,94,30.06,29.97,13,3,13,1.50
2014-9-9,76.5,71.0,66.7,70.7,68.1,64.9,97,91,81,30.10,30.01,11,2,11,0.01
2014-9-10,82.7,74.5,69.1,71.3,69.3,67.5,96,85,64,30.12,30.01,12,1,15,0.00
2014-9-11,89.4,78.4,68.9,76.6,72.4,67.7,97,83,63,30.05,29.92,13,1,13,0.00
2014-9-12,87.0,76.8,72.7,77.5,73.9,71.5,96,91,72,30.06,29.96,10,1,12,0.50
2014-9-13,84.3,75.0,71.5,77.3,72.8,70.0,98,93,77,30.13,30.01,13,1,13,0.62
2014-9-14,71.5,68.5,64.0,70.0,63.0,57.4,95,83,73,30.23,30.12,13,3,17,0.00
2014-9-15,75.5,70.1,65.8,69.4,65.9,62.9,93,87,76,30.22,30.10,8,1,8,0.00
2014-9-16,86.2,75.6,66.3,71.7,69.2,61.8,96,82,57,30.11,29.91,24,1,24,0.80
2014-9-17,81.0,71.3,64.2,70.9,67.0,63.3,97,87,70,29.97,29.86,11,2,11,0.25
2014-9-18,82.0,72.4,63.6,68.1,65.1,61.8,95,79,57,30.03,29.89,11,1,11,0.00
2014-9-19,81.0,71.5,65.0,65.0,62.1,59.1,88,74,51,30.19,30.03,14,2,14,0.00
2014-9-20,79.9,69.9,61.1,64.8,61.3,58.0,91,75,54,30.20,29.94,17,3,17,0.00
2014-9-21,87.2,74.9,63.4,68.1,64.9,61.0,92,73,51,29.95,29.80,12,2,13,0.00
2014-9-22,80.0,72.2,65.2,67.2,61.6,54.0,91,71,45,30.12,29.85,13,2,13,0.05
2014-9-23,66.1,60.5,56.0,61.3,56.2,52.1,93,86,72,30.28,30.10,16,3,17,0.10
2014-9-24,64.0,60.1,55.1,62.3,58.0,52.5,95,93,91,30.26,30.18,18,4,18,0.12
2014-9-25,69.3,66.1,63.6,65.7,63.8,62.1,97,92,87,30.21,30.14,15,3,15,0.14
2014-9-26,71.3,66.6,62.6,65.8,63.1,61.1,95,89,80,30.18,30.12,16,3,16,0.00
2014-9-27,77.5,67.2,57.6,65.4,61.6,56.2,95,83,64,30.19,30.11,14,2,14,0.01
2014-9-28,81.2,69.4,58.4,64.9,61.1,56.8,95,77,53,30.17,30.05,7,1,10,0.00
2014-9-29,73.9,66.5,62.5,67.0,63.1,60.4,96,89,73,30.05,29.94,6,1,8,0.05
2014-9-30,80.1,69.2,61.3,67.0,63.4,60.3,98,83,58,29.94,29.83,11,1,13,0.00
2014-10-1,82.3,69.1,58.0,69.5,63.9,56.7,97,84,62,30.02,29.89,9,0,9,0.01
2014-10-2,84.8,72.0,61.1,69.7,65.3,59.7,98,81,55,30.10,30.01,7,0,9,0.00
2014-10-3,83.4,72.6,64.4,70.4,66.6,63.2,97,83,54,30.05,29.76,22,3,22,0.02
2014-10-4,73.5,67.6,54.4,70.7,54.4,35.5,96,66,31,29.90,29.68,16,3,16,0.10
2014-10-5,66.9,54.9,41.4,45.4,40.4,36.0,92,61,37,30.04,29.88,13,1,14,0.00
2014-10-6,75.4,60.5,45.2,52.7,48.1,42.7,92,67,41,30.11,30.01,17,2,17,0.00
2014-10-7,79.1,66.7,54.4,62.4,57.7,51.2,92,74,53,30.15,30.00,17,2,17,0.00
2014-10-8,86.2,72.9,63.8,68.7,64.5,61.7,94,77,50,30.04,29.93,11,1,11,0.00
2014-10-9,81.5,67.8,55.7,62.4,55.8,51.5,89,68,41,30.16,30.03,10,1,10,0.00
2014-10-10,83.8,72.2,60.2,69.7,63.9,56.5,91,76,60,30.11,29.98,13,2,13,0.00
2014-10-11,88.2,75.0,65.2,71.8,68.2,63.4,95,81,56,30.05,29.90,16,2,16,0.31
2014-10-12,65.1,61.4,58.0,63.5,59.9,56.6,97,95,92,30.21,30.05,15,2,15,0.00
2014-10-13,82.8,71.3,63.4,72.5,67.3,62.3,97,88,70,30.23,30.11,18,1,19,0.01
2014-10-14,81.8,74.5,69.8,74.2,71.4,68.1,97,90,75,30.12,29.88,18,4,18,0.22
2014-10-15,75.2,66.7,57.3,71.4,61.7,54.7,96,84,63,29.90,29.80,17,2,17,0.33
2014-10-16,69.5,60.9,54.1,57.6,55.1,52.3,94,82,62,29.86,29.77,14,1,14,0.01
2014-10-17,75.3,61.8,49.4,57.3,53.8,48.0,96,78,51,29.94,29.81,12,1,12,0.01
2014-10-18,79.1,65.5,54.2,60.2,55.1,48.3,93,71,47,29.90,29.73,15,2,15,0.00
2014-10-19,68.0,57.7,47.6,49.1,46.4,43.8,91,67,46,30.13,29.90,19,2,19,0.00
2014-10-20,73.3,56.7,40.2,54.7,47.9,37.8,92,75,49,30.17,29.97,15,1,15,0.00
2014-10-21,76.5,63.8,51.6,56.8,53.0,45.4,95,71,43,29.98,29.82,16,1,16,0.00
2014-10-22,67.2,57.6,48.3,47.8,44.0,41.1,77,61,49,30.05,29.91,22,4,22,0.00
2014-10-23,69.8,55.8,43.0,49.9,45.0,39.7,90,69,46,30.05,29.92,15,2,15,0.00
2014-10-24,72.0,57.2,47.5,53.4,47.4,42.6,90,72,46,30.06,29.95,11,1,11,0.00
2014-10-25,73.6,56.8,43.6,49.3,45.4,41.2,93,70,34,30.02,29.89,12,1,12,0.00
2014-10-26,81.5,63.5,48.3,57.5,50.5,45.1,92,66,32,29.97,29.84,16,1,16,0.00
2014-10-27,81.0,61.7,44.9,50.4,44.8,38.3,89,60,25,30.11,29.96,7,1,7,0.00
2014-10-28,84.8,66.1,50.4,65.5,57.1,46.9,97,75,46,30.15,30.03,16,1,16,0.00
2014-10-29,80.5,69.6,60.9,62.0,59.7,53.5,90,72,50,30.05,29.89,16,2,16,0.04
2014-10-30,69.5,59.9,49.4,53.1,48.1,44.8,85,66,46,30.03,29.93,14,2,14,0.01
2014-10-31,66.1,52.9,43.4,48.1,45.0,41.2,93,76,50,29.96,29.74,10,1,10,0.00
2014-11-1,51.0,48.1,45.1,47.2,43.8,37.8,94,85,66,29.95,29.66,16,5,23,0.38
2014-11-2,53.9,44.6,37.0,37.8,30.6,26.9,74,59,37,30.33,29.95,21,3,21,0.00
2014-11-3,65.5,47.4,31.5,36.6,30.0,22.5,84,56,21,30.44,30.32,11,1,11,0.00
2014-11-4,66.1,52.3,38.1,42.0,38.2,34.0,86,62,34,30.37,30.25,11,1,11,0.00
2014-11-5,70.6,59.4,50.7,59.1,53.0,41.9,93,80,64,30.31,30.15,13,1,13,0.00
2014-11-6,74.0,65.2,55.5,63.2,57.9,36.4,94,78,46,30.15,29.74,28,3,28,0.00
2014-11-7,61.7,51.8,42.3,41.9,38.3,34.8,82,61,45,30.06,29.85,19,2,19,0.00
2014-11-8,60.2,48.1,36.1,44.8,38.7,31.7,89,71,48,30.09,29.96,9,1,9,0.00
2014-11-9,60.5,50.1,40.9,46.9,43.2,38.4,91,79,53,30.04,29.93,9,1,10,0.00
2014-11-10,64.8,50.3,35.7,48.4,42.5,33.6,93,76,51,30.13,30.02,15,2,15,0.01
2014-11-11,71.8,58.8,48.1,63.0,54.3,45.2,94,85,72,30.02,29.88,16,2,16,0.00
2014-11-12,78.4,61.4,47.5,59.1,53.9,46.1,97,79,50,30.00,29.90,11,1,11,0.01
2014-11-13,61.0,55.7,48.4,55.3,47.7,38.0,87,74,66,30.03,29.94,12,3,14,0.00
2014-11-14,48.3,39.9,30.5,37.9,29.0,19.0,87,66,45,30.32,30.00,13,4,17,0.00
2014-11-15,47.6,35.0,26.3,25.4,20.4,16.7,80,57,34,30.46,30.31,13,2,13,0.00
2014-11-16,47.0,39.5,28.3,41.9,32.8,22.3,95,77,61,30.39,30.04,9,1,9,0.02
2014-11-17,69.0,56.0,43.2,66.0,53.1,37.4,98,90,67,30.05,29.62,14,3,20,0.08
2014-11-18,47.8,34.6,23.8,36.9,20.4,13.4,83,57,36,30.34,29.86,16,3,16,0.00
2014-11-19,45.1,32.2,18.6,22.8,16.7,13.6,84,56,29,30.46,30.25,13,1,13,0.00
2014-11-20,60.2,43.1,27.6,35.4,28.1,20.4,76,57,35,30.26,30.04,23,2,23,0.00
2014-11-21,54.4,42.7,31.5,34.9,24.4,16.5,85,52,24,30.53,30.17,11,2,13,0.00
2014-11-22,58.0,39.7,23.6,31.2,23.2,17.2,77,55,27,30.58,30.31,7,1,7,0.00
2014-11-23,64.7,51.1,38.3,63.5,47.8,30.1,97,88,72,30.31,29.73,19,2,19,1.03
2014-11-24,70.8,65.3,60.7,67.0,62.9,59.5,97,92,83,29.94,29.73,18,2,18,0.03
2014-11-25,62.2,58.4,49.9,61.0,56.6,48.2,97,94,88,30.08,29.91,11,2,11,0.42
2014-11-26,51.2,46.6,38.4,50.0,44.8,37.1,96,94,86,30.07,29.79,22,4,22,1.66
2014-11-27,51.2,42.9,34.1,42.2,37.6,28.8,96,82,65,30.26,29.98,18,2,18,0.02
2014-11-28,46.2,36.0,28.3,29.0,26.0,22.6,89,69,42,30.40,30.26,16,1,16,0.00
2014-11-29,54.4,40.7,28.8,34.3,30.8,26.3,92,70,42,30.36,30.25,13,1,13,0.00
2014-11-30,68.1,50.3,32.9,49.4,41.2,30.6,100,73,44,30.35,30.23,18,2,18,0.00
2014-12-1,72.3,55.5,41.4,55.2,48.3,39.5,96,79,53,30.38,30.27,13,1,13,0.00
2014-12-2,53.1,49.0,43.6,50.1,46.8,41.3,95,92,89,30.42,30.30,13,2,13,0.00
2014-12-3,60.1,52.5,48.2,56.3,51.1,47.2,97,95,87,30.31,30.18,7,0,7,0.01
2014-12-4,54.7,50.7,46.2,52.4,47.6,40.5,98,89,79,30.40,30.25,12,2,12,0.00
2014-12-5,55.9,48.8,43.9,46.7,42.3,38.5,85,78,67,30.46,30.33,10,2,10,0.00
2014-12-6,57.6,53.3,47.7,56.4,50.3,43.3,96,90,83,30.33,30.04,15,1,15,0.14
2014-12-7,53.8,47.9,39.4,50.8,37.0,25.9,90,67,52,30.41,30.07,25,8,25,0.00
2014-12-8,47.4,41.6,37.4,38.0,32.7,26.4,93,71,59,30.39,30.13,20,5,20,0.03
2014-12-9,50.9,43.1,37.6,42.9,39.5,35.8,94,87,69,30.13,29.90,19,3,19,0.03
2014-12-10,52.8,43.9,34.0,42.0,33.2,26.5,92,67,44,30.02,29.94,13,2,19,0.00
2014-12-11,50.7,36.5,27.2,29.7,26.3,23.3,86,69,39,30.15,30.00,13,1,13,0.00
2014-12-12,59.6,40.7,26.3,30.0,25.4,21.4,87,59,26,30.25,30.11,12,1,13,0.00
2014-12-13,64.1,44.9,29.9,33.4,27.9,22.2,84,57,22,30.15,30.02,8,1,13,0.00
2014-12-14,59.6,44.4,33.9,38.9,33.1,26.6,89,66,42,30.08,29.98,16,2,16,0.00
2014-12-15,61.8,44.1,31.5,42.4,36.1,28.7,91,76,46,30.13,30.04,6,0,6,0.00
2014-12-16,60.1,48.0,34.4,57.3,44.7,31.8,95,88,68,30.08,29.87,9,1,12,0.11
2014-12-17,61.2,47.9,37.6,45.2,41.1,36.0,95,79,50,30.12,29.99,11,1,11,0.01
2014-12-18,55.3,43.6,36.3,38.2,34.2,31.4,92,72,43,30.19,30.06,12,1,12,0.00
2014-12-19,57.8,45.1,33.8,36.2,32.6,27.0,89,65,35,30.20,30.09,11,1,11,0.00
2014-12-20,42.5,39.9,37.9,38.2,35.6,33.2,92,85,70,30.28,30.19,11,2,11,0.03
2014-12-21,50.8,43.5,37.9,41.3,37.9,35.3,91,81,69,30.31,30.16,11,2,11,0.05
2014-12-22,41.7,39.8,38.2,39.6,38.2,36.6,96,94,91,30.17,30.00,17,4,17,0.99
2014-12-23,47.2,42.4,39.1,46.4,41.5,37.8,100,96,95,30.08,29.92,11,2,11,0.66
2014-12-24,67.0,60.3,47.2,66.3,59.1,46.4,100,96,91,29.91,29.67,17,3,17,1.45
2014-12-25,64.5,53.2,38.1,62.7,45.4,35.4,94,76,50,30.26,29.69,16,2,16,0.03
2014-12-26,60.6,44.2,32.9,41.4,36.2,30.6,92,76,45,30.37,30.24,6,0,6,0.00
2014-12-27,63.1,46.2,30.8,43.8,38.3,28.8,94,76,48,30.36,30.19,5,0,7,0.01
2014-12-28,63.1,56.4,48.3,59.5,53.8,43.7,96,91,83,30.19,29.99,10,0,12,0.05
2014-12-29,58.2,53.6,44.1,57.0,52.4,42.8,97,96,94,30.15,30.00,17,2,17,0.65
2014-12-30,44.1,39.8,32.3,43.0,37.3,30.4,96,91,85,30.43,30.15,16,4,16,0.02
2014-12-31,47.4,36.2,29.6,31.9,29.1,25.9,100,78,45,30.48,30.36,11,1,11,0.00
2015-1-1,52.5,39.5,26.6,39.0,33.0,24.3,93,79,57,30.37,30.24,6,1,11,0.00
2015-1-2,54.2,49.1,43.2,47.5,43.2,38.8,94,80,69,30.38,30.23,5,0,5,0.06